Lincoln, NE (68512)

2:16 PM CST on December 18, 2014 (GMT -0600)
Southwood | Change Station
CLOSE
Current Station
Personal Weather Station
Location: Lincoln, NE
Elevation: 1247 ft
Nearby Weather Stations

Elev 1247 ft 40.76 °N, 96.69 °W | Updated 4 seconds ago

Overcast
Overcast
32.3 °F
Feels Like 32 °F
N
1.6
Wind Variable Wind from ESE
Gusts 5.4 mph

Today
High -- | Low -- °F
--% Chance of Precip.
Yesterday
High -- | Low -- °F
Precip. -- in
7:45 AM 5:01 PM
Waning Crescent, 12% visible
Pressure 30.20 in
Visibility 7.0 miles
Clouds Mostly Cloudy 1500 ft
Overcast 2100 ft
Windchill 32 °F
Dew Point 24 °F
Humidity 72%
Rainfall 0.04 in
Snow Depth Not available.
UV 1 out of 12
Pollen .10 out of 12
Air Quality Not available.
Flu Activity Not available.
SPECI KLNK 182001Z 00000KT 7SM BKN015 OVC021 M01/M03 A3020 RMK AO2 T10061033

More Conditions Fewer Conditions

Pressure 30.20 in
Visibility 7.0 miles
Clouds Mostly Cloudy 1500 ft
Overcast 2100 ft
Windchill 32 °F
Dew Point 24 °F
Humidity 72%
Rainfall 0.04 in
Snow Depth Not available.
UV 1 out of 12
Pollen .10 out of 12
Air Quality Not available.
Flu Activity Not available.
SPECI KLNK 182001Z 00000KT 7SM BKN015 OVC021 M01/M03 A3020 RMK AO2 T10061033

More Conditions Fewer Conditions

10-Day Weather Forecast

Almanac

Astronomy

Dec. 18, 2014 Rise Set
Actual Time
Civil Twilight
Nautical Twilight
Astronomical Twilight
Moon
Length of Visible Light
Length of Day
Tomorrow will be .
, % of the Moon is Illuminated

Today's Extremes

State Highs State Lows

Community

WunderPhotos

Upload Photos

1,778,992 photos uploaded!

WunderBlogs® & News

Nearby

Air Quality

  Air Quality AQ Index Pollutant
Not available.

Snow Depth

Station Depth Elevation

Earthquake Activity

City Distance Mag. Time & Date
Minimum magnitude displayed is 2.5.

Coastal Water Temperatures

Place Temperature

Nearby Weather Stations